Terminal Aerodrome Forecast
Issued by NWS Mt. Holly, NJ

Home | Current Version | Previous Version | Text Only | Print | Product List | Glossary On
Versions: 1 2 3 4 5 6 7 8 9 10 11 12 13 14 15 16 17 18
000
FTUS41 KPHI 221131
TAFTTN
TAF
KTTN 221131Z 2212/2312 VRB03KT P6SM OVC035
      TEMPO 2212/2213 6SM -SHRA OVC025
     FM221400 29004KT P6SM VCSH OVC040
     FM221500 31007KT P6SM BKN040
     FM221700 32010G20KT P6SM SCT040
     FM230200 32008KT P6SM SKC=

USA.gov is the U.S. government's official web portal to all federal, state and local government web resources and services.